Time;durP1;ratioP1;P1;durP2;ratioP2;P2;SDS_P1;SDS_P2;PMS_P1;PMS_P2;Temp;Humidity;BMP_temperature;BMP_pressure;BME280_temperature;BME280_humidity;BME280_pressure;Samples;Min_cycle;Max_cycle;Signal;HPM_P1;HPM_P2
2024/01/30 00:01:13;;;;;;;5.15;2.75;;;1.50;99.90;;;;;;5033660;28;20226;-76
2024/01/30 00:03:40;;;;;;;4.07;2.75;;;1.60;99.90;;;;;;5032803;28;20240;-76
2024/01/30 00:06:07;;;;;;;4.38;3.13;;;1.50;99.90;;;;;;5032335;28;20672;-76
2024/01/30 00:08:36;;;;;;;2.92;2.55;;;1.50;99.90;;;;;;5033086;28;20201;-76
2024/01/30 00:11:02;;;;;;;4.25;3.25;;;1.50;99.90;;;;;;5031632;28;20748;-76
2024/01/30 00:13:29;;;;;;;6.05;2.60;;;1.50;99.90;;;;;;5032749;28;20228;-75
2024/01/30 00:15:56;;;;;;;3.47;2.88;;;1.50;99.90;;;;;;5032816;28;20211;-76
2024/01/30 00:18:22;;;;;;;2.60;2.40;;;1.50;99.90;;;;;;5033379;28;20597;-76
2024/01/30 00:20:49;;;;;;;4.97;2.75;;;1.50;99.90;;;;;;5033448;28;20213;-76
2024/01/30 00:23:16;;;;;;;3.05;2.85;;;1.50;99.90;;;;;;5033358;28;20230;-76
2024/01/30 00:25:44;;;;;;;3.80;2.78;;;1.50;99.90;;;;;;5033473;28;20211;-76
2024/01/30 00:28:11;;;;;;;2.88;2.55;;;1.50;99.90;;;;;;5033510;28;20582;-76
2024/01/30 00:30:37;;;;;;;6.55;3.75;;;1.50;99.90;;;;;;5033449;28;20224;-77
2024/01/30 00:33:05;;;;;;;3.67;2.80;;;1.50;99.90;;;;;;5033338;28;20231;-76
2024/01/30 00:35:32;;;;;;;5.13;3.28;;;1.50;99.90;;;;;;5033244;28;20290;-76
2024/01/30 00:37:58;;;;;;;4.65;3.50;;;1.50;99.90;;;;;;5033438;28;20209;-76
2024/01/30 00:40:25;;;;;;;3.03;2.70;;;1.50;99.90;;;;;;5033135;28;20201;-77
2024/01/30 00:42:53;;;;;;;4.03;3.08;;;1.60;99.90;;;;;;5033928;28;20223;-76
2024/01/30 00:45:20;;;;;;;4.95;3.17;;;1.50;99.90;;;;;;5033064;28;20203;-76
2024/01/30 00:47:46;;;;;;;4.10;3.13;;;1.60;99.90;;;;;;5034183;28;20212;-76
2024/01/30 00:50:13;;;;;;;4.45;2.95;;;1.60;99.90;;;;;;5033171;28;20310;-76
2024/01/30 00:52:41;;;;;;;3.40;3.10;;;1.60;99.90;;;;;;5034047;28;20612;-76
2024/01/30 00:55:08;;;;;;;4.65;3.30;;;1.60;99.90;;;;;;5033260;28;20212;-76
2024/01/30 00:57:35;;;;;;;4.28;3.13;;;1.70;99.90;;;;;;5034164;28;20211;-76
2024/01/30 01:00:06;;;;;;;5.80;2.75;;;1.70;99.90;;;;;;5033151;28;20201;-76
2024/01/30 01:02:32;;;;;;;4.50;3.00;;;1.80;99.90;;;;;;4998307;28;1028849;-76
2024/01/30 01:04:59;;;;;;;5.22;3.13;;;1.80;99.90;;;;;;5034239;28;20853;-76
2024/01/30 01:07:26;;;;;;;8.60;3.38;;;1.80;99.90;;;;;;5038299;28;20207;-76
2024/01/30 01:09:53;;;;;;;3.88;2.42;;;1.90;99.90;;;;;;5035241;28;20232;-76
2024/01/30 01:12:19;;;;;;;4.15;2.85;;;1.90;99.90;;;;;;5034286;28;20227;-76
2024/01/30 01:14:46;;;;;;;5.28;2.90;;;1.90;99.90;;;;;;5035063;28;20229;-76
2024/01/30 01:17:14;;;;;;;4.30;2.97;;;1.90;99.90;;;;;;5034338;28;20209;-76
2024/01/30 01:19:41;;;;;;;5.57;3.10;;;1.90;99.90;;;;;;5035411;28;20239;-76
2024/01/30 01:22:08;;;;;;;3.35;2.90;;;1.90;99.90;;;;;;5034174;28;20232;-76
2024/01/30 01:24:35;;;;;;;3.08;2.40;;;1.90;99.90;;;;;;5035258;28;20208;-76
2024/01/30 01:27:01;;;;;;;4.45;4.05;;;1.90;99.90;;;;;;5034895;28;20216;-76
2024/01/30 01:29:29;;;;;;;8.93;3.17;;;1.90;99.90;;;;;;5034356;28;20220;-76
2024/01/30 01:31:56;;;;;;;4.22;2.65;;;1.90;99.90;;;;;;5033995;28;20203;-76
2024/01/30 01:34:24;;;;;;;4.60;3.28;;;1.80;99.90;;;;;;5034521;28;20204;-76
2024/01/30 01:36:51;;;;;;;7.18;2.95;;;1.80;99.90;;;;;;5035545;28;20222;-76
2024/01/30 01:39:18;;;;;;;3.45;2.67;;;1.80;99.90;;;;;;5034340;28;20202;-76
2024/01/30 01:41:45;;;;;;;4.53;3.08;;;1.80;99.90;;;;;;5042599;28;20208;-76
2024/01/30 01:44:11;;;;;;;3.05;2.78;;;1.70;99.90;;;;;;5034757;28;20583;-76
2024/01/30 01:46:38;;;;;;;4.35;2.80;;;1.70;99.90;;;;;;5035555;28;20209;-76
2024/01/30 01:49:06;;;;;;;4.88;3.08;;;1.70;99.90;;;;;;5034653;28;20218;-76
2024/01/30 01:51:36;;;;;;;2.75;2.53;;;1.70;99.90;;;;;;5035013;28;20228;-76
2024/01/30 01:54:05;;;;;;;5.63;3.17;;;1.70;99.90;;;;;;5035328;28;23443;-76
2024/01/30 01:56:34;;;;;;;4.25;2.65;;;1.70;99.90;;;;;;5035720;28;20209;-76
2024/01/30 01:59:05;;;;;;;4.70;2.78;;;1.70;99.90;;;;;;5036827;28;20205;-76
2024/01/30 02:01:33;;;;;;;3.10;2.63;;;1.70;99.90;;;;;;5036228;28;20205;-77
2024/01/30 02:04:00;;;;;;;4.60;2.58;;;1.70;99.90;;;;;;5036359;28;20321;-76
2024/01/30 02:06:27;;;;;;;4.00;3.00;;;1.70;99.90;;;;;;5035376;28;20733;-76
2024/01/30 02:08:55;;;;;;;3.85;2.55;;;1.60;99.90;;;;;;5036964;28;20209;-76
2024/01/30 02:11:23;;;;;;;3.35;2.72;;;1.60;99.90;;;;;;5035501;28;20225;-76
2024/01/30 02:13:51;;;;;;;5.25;2.97;;;1.60;99.90;;;;;;5037352;28;20258;-76
2024/01/30 02:16:18;;;;;;;3.38;2.80;;;1.60;99.90;;;;;;5035347;28;20206;-76
2024/01/30 02:18:47;;;;;;;3.33;2.78;;;1.50;99.90;;;;;;5037378;28;20204;-76
2024/01/30 02:21:15;;;;;;;3.55;2.63;;;1.50;99.90;;;;;;5041059;28;20627;-76
2024/01/30 02:23:43;;;;;;;5.70;3.30;;;1.40;99.90;;;;;;5036956;28;20231;-76
2024/01/30 02:26:11;;;;;;;4.63;3.05;;;1.40;99.90;;;;;;5035063;28;20213;-76
2024/01/30 02:28:37;;;;;;;3.33;2.67;;;1.40;99.90;;;;;;5036567;28;20600;-76
2024/01/30 02:31:04;;;;;;;3.80;3.17;;;1.40;99.90;;;;;;5036097;28;20239;-76
2024/01/30 02:33:31;;;;;;;3.03;2.45;;;1.30;99.90;;;;;;5037580;28;20226;-76
2024/01/30 02:35:58;;;;;;;3.70;2.38;;;1.30;99.90;;;;;;5040870;28;20208;-76
2024/01/30 02:38:26;;;;;;;2.88;2.67;;;1.20;99.90;;;;;;5039614;28;20205;-76
2024/01/30 02:40:53;;;;;;;5.30;2.97;;;1.20;99.90;;;;;;5041707;28;20246;-76
2024/01/30 02:43:20;;;;;;;2.88;2.55;;;1.20;99.90;;;;;;5039512;28;20234;-76
2024/01/30 02:45:46;;;;;;;4.70;3.30;;;1.20;99.90;;;;;;5041559;28;20212;-76
2024/01/30 02:48:13;;;;;;;3.88;2.83;;;1.20;99.90;;;;;;5053718;28;20673;-76
2024/01/30 02:50:40;;;;;;;3.00;2.53;;;1.10;99.90;;;;;;5044212;28;20236;-76
2024/01/30 02:53:06;;;;;;;6.35;2.80;;;1.10;99.90;;;;;;5040077;28;20228;-76
2024/01/30 02:55:35;;;;;;;4.30;3.10;;;1.10;99.90;;;;;;5039636;28;20202;-76
2024/01/30 02:58:01;;;;;;;3.90;2.95;;;1.10;99.90;;;;;;5040951;28;20216;-76
2024/01/30 03:00:28;;;;;;;4.55;2.90;;;1.10;99.90;;;;;;5039382;28;20206;-76
2024/01/30 03:02:55;;;;;;;2.55;2.35;;;1.10;99.90;;;;;;5039169;28;20560;-76
2024/01/30 03:05:21;;;;;;;2.45;2.25;;;1.00;99.90;;;;;;5039543;28;20202;-76
2024/01/30 03:07:48;;;;;;;3.70;2.30;;;1.00;99.90;;;;;;5042144;28;20684;-76
2024/01/30 03:10:15;;;;;;;3.85;3.00;;;1.00;99.90;;;;;;5039095;28;20228;-76
2024/01/30 03:12:43;;;;;;;2.85;2.30;;;1.00;99.90;;;;;;5041103;28;20748;-76
2024/01/30 03:15:10;;;;;;;3.78;2.65;;;0.90;99.90;;;;;;5039804;28;20265;-76
2024/01/30 03:17:37;;;;;;;2.63;2.22;;;0.80;99.90;;;;;;5040542;28;20208;-76
2024/01/30 03:20:06;;;;;;;5.40;2.85;;;0.80;99.90;;;;;;5041005;28;20211;-76
2024/01/30 03:22:32;;;;;;;2.63;2.17;;;0.80;99.90;;;;;;5039855;28;20307;-76
2024/01/30 03:24:59;;;;;;;2.97;2.75;;;0.80;99.90;;;;;;5041059;28;20202;-76
2024/01/30 03:27:26;;;;;;;2.83;2.50;;;0.80;99.90;;;;;;5039625;28;20209;-76
2024/01/30 03:29:54;;;;;;;2.90;2.60;;;0.70;99.90;;;;;;5044199;28;20585;-75
2024/01/30 03:32:20;;;;;;;2.85;2.55;;;0.70;99.90;;;;;;5041562;28;20226;-76
2024/01/30 03:34:47;;;;;;;3.88;2.83;;;0.70;99.90;;;;;;5048514;28;20209;-76
2024/01/30 03:37:14;;;;;;;2.60;2.40;;;0.70;99.90;;;;;;5045167;28;20210;-76
2024/01/30 03:39:40;;;;;;;3.20;2.70;;;0.70;99.90;;;;;;5041379;28;20212;-76
2024/01/30 03:42:07;;;;;;;2.70;1.85;;;0.70;99.90;;;;;;5041318;28;20252;-76
2024/01/30 03:44:34;;;;;;;3.90;3.00;;;0.60;99.90;;;;;;5039262;28;20215;-76
2024/01/30 03:47:02;;;;;;;7.25;2.55;;;0.60;99.90;;;;;;5042257;28;20681;-76
2024/01/30 03:49:29;;;;;;;3.00;2.80;;;0.60;99.90;;;;;;5040519;28;20349;-76
2024/01/30 03:51:55;;;;;;;2.20;1.90;;;0.60;99.90;;;;;;5040811;28;20223;-76
2024/01/30 03:54:22;;;;;;;6.07;2.80;;;0.60;99.90;;;;;;5039967;28;20200;-76
2024/01/30 03:56:49;;;;;;;4.05;2.80;;;0.60;99.90;;;;;;5042681;28;20207;-76
2024/01/30 03:59:17;;;;;;;2.00;1.90;;;0.60;99.90;;;;;;5040335;28;20572;-76
2024/01/30 04:01:44;;;;;;;2.88;2.67;;;0.60;99.90;;;;;;5042409;28;20209;-76
2024/01/30 04:04:12;;;;;;;3.38;2.80;;;0.50;99.90;;;;;;5041165;28;20757;-76
2024/01/30 04:06:38;;;;;;;3.38;2.95;;;0.50;99.90;;;;;;5040995;28;20212;-76
2024/01/30 04:09:05;;;;;;;2.85;2.55;;;0.40;99.90;;;;;;5041273;28;20293;-76
2024/01/30 04:11:32;;;;;;;5.70;3.00;;;0.40;99.90;;;;;;5047221;28;20228;-76
2024/01/30 04:13:59;;;;;;;2.75;2.55;;;0.40;99.90;;;;;;5049570;28;20223;-76
2024/01/30 04:16:26;;;;;;;3.85;2.60;;;0.40;99.90;;;;;;5045802;28;20209;-76
2024/01/30 04:18:53;;;;;;;3.45;2.40;;;0.40;99.90;;;;;;5051356;28;20202;-76
2024/01/30 04:21:21;;;;;;;2.75;2.25;;;0.40;99.90;;;;;;5046337;28;20203;-76
2024/01/30 04:23:48;;;;;;;3.95;2.80;;;0.40;99.90;;;;;;5048056;28;20230;-76
2024/01/30 04:26:15;;;;;;;3.13;2.30;;;0.40;99.90;;;;;;5048068;28;20575;-75
2024/01/30 04:28:42;;;;;;;2.97;2.45;;;0.30;99.90;;;;;;5046203;28;20211;-75
2024/01/30 04:31:09;;;;;;;3.30;3.00;;;0.30;99.90;;;;;;5052296;28;20229;-75
2024/01/30 04:33:36;;;;;;;2.88;2.38;;;0.20;99.90;;;;;;5046262;28;20225;-75
2024/01/30 04:36:04;;;;;;;4.78;3.30;;;0.10;99.90;;;;;;5048319;28;20206;-74
2024/01/30 04:38:32;;;;;;;2.58;2.20;;;0.10;99.90;;;;;;5043142;28;20203;-75
2024/01/30 04:40:59;;;;;;;3.50;2.67;;;0.10;99.90;;;;;;5049925;28;20203;-75
2024/01/30 04:43:27;;;;;;;4.10;2.35;;;0.10;99.90;;;;;;5045984;28;20218;-75
2024/01/30 04:45:53;;;;;;;2.60;2.35;;;0.10;99.90;;;;;;5045974;28;20202;-75
2024/01/30 04:48:20;;;;;;;3.28;2.60;;;0.10;99.90;;;;;;5043238;28;20691;-75
2024/01/30 04:50:47;;;;;;;2.65;2.35;;;0.10;99.90;;;;;;5044841;28;20202;-76
2024/01/30 04:53:14;;;;;;;2.70;2.40;;;0.10;99.90;;;;;;5045904;28;20221;-75
2024/01/30 04:55:42;;;;;;;4.45;2.63;;;0.10;99.90;;;;;;5046843;28;20671;-76
2024/01/30 04:58:08;;;;;;;7.13;2.90;;;0.10;99.90;;;;;;5046137;28;20225;-77
2024/01/30 05:00:35;;;;;;;3.83;2.47;;;0.00;99.90;;;;;;5046412;28;20203;-76
2024/01/30 05:03:02;;;;;;;5.15;3.05;;;0.00;99.90;;;;;;5048022;28;20625;-75
2024/01/30 05:05:28;;;;;;;4.22;3.42;;;0.10;99.90;;;;;;5043320;28;20205;-74
2024/01/30 05:07:55;;;;;;;3.67;2.97;;;0.00;99.90;;;;;;5044945;28;20243;-75
2024/01/30 05:10:22;;;;;;;2.90;2.63;;;0.10;99.90;;;;;;5047645;28;20210;-75
2024/01/30 05:12:50;;;;;;;4.20;3.05;;;0.00;99.90;;;;;;5055451;28;20237;-75
2024/01/30 05:15:17;;;;;;;2.88;2.50;;;0.10;99.90;;;;;;5043888;28;20208;-74
2024/01/30 05:17:43;;;;;;;2.83;2.50;;;0.00;99.90;;;;;;5055906;28;20214;-76
2024/01/30 05:20:11;;;;;;;3.78;2.58;;;0.00;99.90;;;;;;5042430;28;20203;-76
2024/01/30 05:22:44;;;;;;;3.97;3.15;;;0.00;99.90;;;;;;5040398;28;20238;-76
2024/01/30 05:25:11;;;;;;;2.72;2.53;;;0.00;99.90;;;;;;5042574;28;20720;-76
2024/01/30 05:27:38;;;;;;;3.67;2.80;;;0.00;99.90;;;;;;5046710;28;20215;-83
2024/01/30 05:30:07;;;;;;;2.65;2.38;;;0.00;99.90;;;;;;5047617;28;20583;-82
2024/01/30 05:32:34;;;;;;;2.67;2.47;;;0.00;99.90;;;;;;5048254;28;20228;-82
2024/01/30 05:35:01;;;;;;;4.15;3.28;;;0.00;99.90;;;;;;5049036;28;20215;-80
2024/01/30 05:37:28;;;;;;;3.00;2.80;;;0.00;99.90;;;;;;5044727;28;20207;-79
2024/01/30 05:39:54;;;;;;;3.35;2.65;;;0.00;99.90;;;;;;5043813;28;20212;-80
2024/01/30 05:42:21;;;;;;;3.78;2.78;;;-0.10;99.90;;;;;;5053073;28;20224;-80
2024/01/30 05:44:48;;;;;;;3.10;2.53;;;-0.10;99.90;;;;;;5054667;28;20218;-80
2024/01/30 05:47:16;;;;;;;3.22;2.92;;;-0.10;99.90;;;;;;5055948;28;20225;-82
2024/01/30 05:49:43;;;;;;;3.30;2.83;;;-0.10;99.90;;;;;;5053621;28;20215;-77
2024/01/30 05:52:10;;;;;;;2.65;2.35;;;-0.10;99.90;;;;;;5047715;28;20225;-78
2024/01/30 05:54:37;;;;;;;3.95;2.78;;;-0.20;99.90;;;;;;5050553;28;20216;-81
2024/01/30 05:57:04;;;;;;;3.15;2.38;;;-0.20;99.90;;;;;;5058865;28;20213;-80
2024/01/30 05:59:31;;;;;;;5.05;2.75;;;-0.20;99.90;;;;;;5065785;28;20209;-82
2024/01/30 06:01:57;;;;;;;2.40;2.08;;;-0.20;99.90;;;;;;5074773;28;20202;-77
2024/01/30 06:04:25;;;;;;;5.43;2.90;;;-0.20;99.90;;;;;;5059208;28;20269;-77
2024/01/30 06:06:52;;;;;;;3.50;2.30;;;-0.20;99.90;;;;;;5065294;28;20185;-78
2024/01/30 06:09:19;;;;;;;4.97;3.50;;;-0.20;99.90;;;;;;5069400;28;20185;-79
2024/01/30 06:11:46;;;;;;;5.32;3.40;;;-0.20;99.90;;;;;;5069590;28;20250;-79
2024/01/30 06:14:13;;;;;;;2.28;2.08;;;-0.20;99.90;;;;;;5062904;28;20208;-78
2024/01/30 06:16:39;;;;;;;5.65;3.15;;;-0.20;99.90;;;;;;5054840;28;20215;-78
2024/01/30 06:19:07;;;;;;;5.75;3.42;;;-0.20;99.90;;;;;;5064072;28;20233;-77
2024/01/30 06:21:36;;;;;;;5.00;2.47;;;-0.20;99.90;;;;;;5055283;28;20205;-78
2024/01/30 06:24:03;;;;;;;4.90;4.00;;;-0.20;99.90;;;;;;5059552;28;20237;-80
2024/01/30 06:26:30;;;;;;;5.68;2.80;;;-0.20;99.90;;;;;;5056304;28;20298;-79
2024/01/30 06:28:56;;;;;;;2.95;2.58;;;-0.20;99.90;;;;;;5065111;28;20217;-79
2024/01/30 06:31:23;;;;;;;3.47;2.67;;;-0.20;99.90;;;;;;5059485;28;20240;-78
2024/01/30 06:33:50;;;;;;;3.70;3.40;;;-0.20;99.90;;;;;;5057901;28;20236;-79
2024/01/30 06:36:17;;;;;;;2.33;2.00;;;-0.20;99.90;;;;;;5054727;28;20201;-81
2024/01/30 06:38:45;;;;;;;4.18;2.83;;;-0.30;99.90;;;;;;5059053;28;20583;-81
2024/01/30 06:41:12;;;;;;;3.92;2.88;;;-0.30;99.90;;;;;;5057849;28;20296;-83
2024/01/30 06:43:39;;;;;;;2.13;1.92;;;-0.30;99.90;;;;;;5050944;28;20238;-80
2024/01/30 06:46:06;;;;;;;3.30;2.60;;;-0.20;99.90;;;;;;5050157;28;20241;-77
2024/01/30 06:48:32;;;;;;;2.72;2.53;;;-0.20;99.90;;;;;;5046862;28;20212;-76
2024/01/30 06:50:59;;;;;;;2.50;2.30;;;-0.20;99.90;;;;;;5050455;28;20217;-77
2024/01/30 06:53:26;;;;;;;3.75;2.50;;;-0.30;99.90;;;;;;5047170;28;20229;-77
2024/01/30 06:55:54;;;;;;;2.75;2.55;;;-0.30;99.90;;;;;;5048956;28;20675;-77
2024/01/30 06:58:21;;;;;;;3.15;2.80;;;-0.30;99.90;;;;;;5048175;28;20205;-77
2024/01/30 07:00:48;;;;;;;3.92;2.83;;;-0.30;99.90;;;;;;5048375;28;20210;-77
2024/01/30 07:03:14;;;;;;;3.47;2.55;;;-0.30;99.90;;;;;;5050850;28;20236;-82
2024/01/30 07:05:41;;;;;;;4.07;3.35;;;-0.20;99.90;;;;;;5052721;28;20209;-83
2024/01/30 07:08:08;;;;;;;3.88;3.45;;;-0.30;99.90;;;;;;5057740;28;20205;-82
2024/01/30 07:10:35;;;;;;;3.75;3.33;;;-0.20;99.90;;;;;;5055794;28;20586;-82
2024/01/30 07:13:04;;;;;;;3.08;2.70;;;-0.20;99.90;;;;;;5052637;28;20229;-83
2024/01/30 07:15:33;;;;;;;4.78;2.92;;;-0.20;99.90;;;;;;5054105;28;20686;-77
2024/01/30 07:18:00;;;;;;;3.00;2.70;;;-0.10;99.90;;;;;;5067120;28;20236;-79
2024/01/30 07:20:27;;;;;;;3.65;2.97;;;-0.10;99.90;;;;;;5058812;28;20216;-80
2024/01/30 07:22:54;;;;;;;3.38;2.38;;;0.00;99.90;;;;;;5067687;28;20252;-81
2024/01/30 07:25:21;;;;;;;5.03;2.47;;;0.00;99.90;;;;;;5065753;28;20210;-80
2024/01/30 07:27:48;;;;;;;5.07;3.30;;;0.10;99.90;;;;;;5063598;28;20210;-77
2024/01/30 07:30:17;;;;;;;6.97;3.05;;;0.20;99.90;;;;;;5052454;28;20216;-80
2024/01/30 07:32:43;;;;;;;3.35;2.80;;;0.30;99.90;;;;;;5067097;28;20258;-81
2024/01/30 07:35:11;;;;;;;6.05;3.20;;;0.40;99.90;;;;;;5073407;28;20582;-80
2024/01/30 07:37:38;;;;;;;4.22;3.00;;;0.40;99.90;;;;;;5068529;28;20202;-82
2024/01/30 07:40:06;;;;;;;3.95;3.38;;;0.50;99.90;;;;;;5066252;28;20229;-80
2024/01/30 07:42:33;;;;;;;3.63;3.28;;;0.60;99.90;;;;;;5059164;28;20440;-81
2024/01/30 07:45:00;;;;;;;5.30;3.53;;;0.70;99.90;;;;;;5052842;28;20203;-80
2024/01/30 07:47:28;;;;;;;4.57;3.60;;;0.80;99.90;;;;;;5051361;28;20214;-85
2024/01/30 07:49:55;;;;;;;3.15;2.63;;;0.90;99.90;;;;;;5053489;28;20212;-78
2024/01/30 07:52:21;;;;;;;6.00;3.80;;;1.10;99.90;;;;;;5052991;28;20584;-80
2024/01/30 07:54:48;;;;;;;4.32;3.00;;;1.20;99.90;;;;;;5054813;28;20204;-80
2024/01/30 07:57:15;;;;;;;4.95;3.53;;;1.30;99.90;;;;;;5056971;28;20233;-79
2024/01/30 07:59:44;;;;;;;3.53;3.20;;;1.40;99.90;;;;;;5056522;28;20533;-81
2024/01/30 08:02:13;;;;;;;4.88;3.85;;;1.60;99.90;;;;;;5057467;28;20643;-81
2024/01/30 08:04:41;;;;;;;6.25;4.03;;;1.80;99.90;;;;;;5053653;28;20236;-78
2024/01/30 08:07:08;;;;;;;5.15;3.60;;;2.10;99.90;;;;;;5054993;28;20562;-78
2024/01/30 08:09:34;;;;;;;5.47;3.83;;;2.40;99.90;;;;;;5053412;28;20209;-78
2024/01/30 08:12:01;;;;;;;7.47;5.55;;;2.70;99.90;;;;;;5054971;28;20224;-83
2024/01/30 08:14:28;;;;;;;7.15;4.65;;;3.00;99.90;;;;;;5053417;28;20201;-77
2024/01/30 08:16:55;;;;;;;4.50;4.10;;;3.20;99.90;;;;;;5049675;28;20236;-83
2024/01/30 08:19:22;;;;;;;6.45;3.70;;;3.50;99.90;;;;;;5055537;28;20212;-81
2024/01/30 08:21:50;;;;;;;6.03;4.90;;;3.90;99.90;;;;;;5055638;28;20206;-79
2024/01/30 08:24:16;;;;;;;7.47;4.22;;;4.20;99.90;;;;;;5050992;28;20209;-80
2024/01/30 08:26:43;;;;;;;3.95;3.55;;;4.60;99.90;;;;;;5050440;28;20218;-81
2024/01/30 08:29:10;;;;;;;8.25;4.65;;;5.20;99.90;;;;;;5052385;28;20288;-79
2024/01/30 08:31:37;;;;;;;6.70;4.13;;;5.70;99.90;;;;;;5051042;28;20209;-78
2024/01/30 08:34:04;;;;;;;4.63;4.22;;;6.50;99.90;;;;;;5052793;28;20691;-81
2024/01/30 08:36:30;;;;;;;5.70;4.35;;;7.40;99.90;;;;;;5045665;28;20232;-77
2024/01/30 08:38:58;;;;;;;6.65;4.88;;;8.20;99.90;;;;;;5054552;28;20207;-79
2024/01/30 08:41:25;;;;;;;5.20;4.05;;;9.00;99.90;;;;;;5060187;28;20207;-82
2024/01/30 08:43:54;;;;;;;7.10;3.90;;;9.70;99.90;;;;;;5061158;28;20327;-77
2024/01/30 08:46:20;;;;;;;6.15;4.50;;;10.20;99.90;;;;;;5051592;28;20209;-77
2024/01/30 08:48:47;;;;;;;6.53;5.10;;;10.70;99.90;;;;;;5051710;28;20440;-77
2024/01/30 08:51:15;;;;;;;5.60;4.72;;;10.90;99.90;;;;;;5052451;28;20201;-81
2024/01/30 08:53:42;;;;;;;6.70;5.03;;;11.00;99.90;;;;;;5050785;28;20229;-80
2024/01/30 08:56:10;;;;;;;4.43;3.92;;;10.90;99.90;;;;;;5052630;28;20212;-82
2024/01/30 08:58:37;;;;;;;8.77;4.63;;;10.80;99.90;;;;;;5053060;28;20233;-79
2024/01/30 09:01:05;;;;;;;7.35;4.80;;;11.00;99.90;;;;;;5053391;28;20213;-78
2024/01/30 09:03:32;;;;;;;6.70;5.03;;;10.80;99.90;;;;;;5054976;28;20229;-78
2024/01/30 09:05:58;;;;;;;7.45;5.30;;;10.40;99.90;;;;;;5057755;28;20209;-78
2024/01/30 09:08:25;;;;;;;13.57;6.28;;;10.50;99.90;;;;;;5061198;28;20300;-80
2024/01/30 09:10:52;;;;;;;6.30;5.35;;;10.80;99.90;;;;;;5057152;28;20650;-82
2024/01/30 09:13:20;;;;;;;4.90;4.40;;;11.50;99.90;;;;;;5057582;28;20705;-80
2024/01/30 09:15:47;;;;;;;7.28;5.18;;;12.70;99.90;;;;;;5059414;28;20207;-81
2024/01/30 09:18:13;;;;;;;6.20;4.90;;;13.40;99.90;;;;;;5057587;28;20210;-81
2024/01/30 09:20:40;;;;;;;5.38;4.88;;;13.70;99.90;;;;;;5055598;28;20230;-79
2024/01/30 09:23:07;;;;;;;8.25;4.78;;;13.50;99.90;;;;;;5056743;28;20242;-79
2024/01/30 09:25:34;;;;;;;5.45;4.80;;;13.60;99.90;;;;;;5056064;28;20293;-82
2024/01/30 09:28:01;;;;;;;6.00;4.63;;;13.90;99.90;;;;;;5054402;28;20204;-83
2024/01/30 09:30:29;;;;;;;6.45;4.20;;;14.20;99.90;;;;;;5053934;28;20463;-82
2024/01/30 09:32:56;;;;;;;5.90;5.20;;;14.50;99.90;;;;;;5046532;28;20721;-82
2024/01/30 09:35:22;;;;;;;5.37;4.77;;;14.90;99.30;;;;;;5054492;28;20466;-80
2024/01/30 09:37:49;;;;;;;6.13;5.00;;;15.40;98.90;;;;;;5065060;28;20452;-80
2024/01/30 09:40:18;;;;;;;7.03;5.27;;;15.20;98.30;;;;;;5057383;28;20830;-80
2024/01/30 09:42:48;;;;;;;7.67;4.90;;;14.90;98.30;;;;;;5060501;28;20471;-80
2024/01/30 09:45:15;;;;;;;5.20;4.70;;;14.40;98.90;;;;;;5068892;28;20468;-79
2024/01/30 09:47:44;;;;;;;7.73;5.03;;;13.90;98.70;;;;;;5071296;28;20465;-81
2024/01/30 09:50:12;;;;;;;5.40;4.57;;;13.50;99.30;;;;;;5063300;28;20463;-78
2024/01/30 09:52:40;;;;;;;5.53;4.13;;;13.40;99.40;;;;;;5058030;28;20498;-75
2024/01/30 09:55:08;;;;;;;9.00;5.47;;;13.60;99.90;;;;;;5059111;28;20489;-78
2024/01/30 09:57:35;;;;;;;4.60;4.17;;;14.10;99.90;;;;;;5060609;28;20460;-78
2024/01/30 10:00:02;;;;;;;4.80;3.80;;;14.50;98.90;;;;;;5061089;28;20538;-78
2024/01/30 10:02:29;;;;;;;4.77;3.80;;;14.90;98.30;;;;;;5069787;28;20475;-81
2024/01/30 10:04:57;;;;;;;4.97;4.13;;;15.20;98.00;;;;;;5053188;28;20456;-79
2024/01/30 10:07:24;;;;;;;4.97;3.30;;;15.30;98.00;;;;;;5058249;28;20451;-78
2024/01/30 10:09:51;;;;;;;1.93;1.80;;;15.10;98.00;;;;;;5067972;28;20482;-82
2024/01/30 10:12:18;;;;;;;2.63;2.40;;;14.40;95.90;;;;;;5054710;28;20487;-80
2024/01/30 10:14:45;;;;;;;2.13;1.63;;;14.10;97.00;;;;;;5052099;28;20835;-79
2024/01/30 10:17:13;;;;;;;2.63;2.20;;;13.70;96.60;;;;;;5047641;28;20824;-80
2024/01/30 10:19:41;;;;;;;2.30;1.87;;;13.10;96.30;;;;;;5053948;28;20456;-79
2024/01/30 10:22:10;;;;;;;2.43;1.93;;;12.90;96.90;;;;;;5040909;28;20483;-80
2024/01/30 10:24:37;;;;;;;1.60;1.50;;;12.70;96.80;;;;;;5041753;28;20467;-80
2024/01/30 10:27:06;;;;;;;3.43;2.43;;;12.70;96.70;;;;;;5040207;28;20225;-83
2024/01/30 10:29:33;;;;;;;2.23;2.00;;;12.50;96.50;;;;;;5037723;28;20467;-79
2024/01/30 10:32:00;;;;;;;1.77;1.60;;;12.50;96.60;;;;;;5039475;28;20478;-78
2024/01/30 10:34:27;;;;;;;2.10;1.75;;;12.20;96.60;;;;;;5042825;28;20513;-79
2024/01/30 10:37:01;;;;;;;2.70;1.98;;;12.10;97.20;;;;;;5034774;28;20211;-79
2024/01/30 10:39:31;;;;;;;2.70;1.95;;;12.00;97.00;;;;;;5034107;28;20209;-78
2024/01/30 10:42:03;;;;;;;2.25;1.70;;;11.90;97.20;;;;;;5037626;28;20211;-79
2024/01/30 10:44:36;;;;;;;1.85;1.63;;;11.80;97.30;;;;;;5036930;28;20674;-78
2024/01/30 10:47:12;;;;;;;1.98;1.77;;;11.90;97.20;;;;;;5040960;28;20658;-79
2024/01/30 10:49:40;;;;;;;3.92;2.00;;;12.00;97.60;;;;;;5042357;28;20333;-78
2024/01/30 10:52:08;;;;;;;3.13;2.05;;;12.00;97.50;;;;;;5033451;28;20208;-78
2024/01/30 10:54:38;;;;;;;1.80;1.60;;;12.10;97.20;;;;;;5035781;28;20226;-78
2024/01/30 10:57:06;;;;;;;2.47;1.65;;;12.20;97.40;;;;;;5037748;28;20213;-79
2024/01/30 10:59:34;;;;;;;1.75;1.60;;;12.40;97.40;;;;;;5046049;28;20300;-79
2024/01/30 11:02:02;;;;;;;2.13;1.90;;;12.50;97.00;;;;;;5053728;28;20204;-79
2024/01/30 11:04:36;;;;;;;2.57;1.80;;;12.60;96.80;;;;;;5045429;28;20212;-79
2024/01/30 11:07:03;;;;;;;2.67;2.03;;;12.80;96.70;;;;;;5037251;28;20473;-79
2024/01/30 11:09:30;;;;;;;2.33;2.03;;;13.20;96.40;;;;;;5045641;28;20669;-79
2024/01/30 11:12:01;;;;;;;2.63;1.60;;;13.50;96.40;;;;;;5041483;28;20464;-79
2024/01/30 11:14:30;;;;;;;2.37;1.97;;;13.70;95.80;;;;;;5042529;28;20901;-79
2024/01/30 11:16:58;;;;;;;3.40;2.03;;;13.80;96.00;;;;;;5037531;28;20962;-79
2024/01/30 11:19:26;;;;;;;1.60;1.30;;;14.00;96.00;;;;;;5038844;28;20482;-80
2024/01/30 11:21:54;;;;;;;1.60;1.50;;;14.00;95.60;;;;;;5038614;28;20458;-79
2024/01/30 11:24:22;;;;;;;2.23;1.57;;;13.70;95.70;;;;;;5038670;28;20527;-80
2024/01/30 11:26:50;;;;;;;1.77;1.40;;;13.70;96.10;;;;;;5037100;28;20464;-79
2024/01/30 11:29:18;;;;;;;2.90;2.50;;;13.60;96.10;;;;;;5038845;28;20463;-79
2024/01/30 11:31:53;;;;;;;1.90;1.70;;;13.30;96.00;;;;;;5049609;28;20463;-83
2024/01/30 11:34:21;;;;;;;1.60;1.50;;;13.30;96.10;;;;;;5044193;28;20480;-79
2024/01/30 11:36:54;;;;;;;1.80;1.70;;;13.40;96.10;;;;;;5038253;28;20460;-79
2024/01/30 11:39:22;;;;;;;2.67;2.10;;;13.40;96.20;;;;;;5037888;28;20457;-78
2024/01/30 11:41:52;;;;;;;2.17;1.60;;;13.20;96.40;;;;;;5038403;28;20518;-78
2024/01/30 11:44:21;;;;;;;2.20;1.50;;;13.20;96.40;;;;;;5045910;28;21095;-79
2024/01/30 11:46:48;;;;;;;2.00;1.90;;;13.00;96.90;;;;;;5038833;28;20839;-79
2024/01/30 11:49:17;;;;;;;3.23;1.20;;;13.10;96.80;;;;;;5038683;28;20456;-79
2024/01/30 11:51:43;;;;;;;1.87;1.77;;;13.00;96.20;;;;;;5038580;28;20464;-79
2024/01/30 11:54:10;;;;;;;2.13;1.93;;;13.00;96.60;;;;;;5038050;28;20551;-79
2024/01/30 11:56:38;;;;;;;2.03;1.83;;;13.00;96.70;;;;;;5039736;28;20468;-78
2024/01/30 11:59:05;;;;;;;2.17;1.97;;;13.00;96.90;;;;;;5041070;28;20505;-78
2024/01/30 12:01:33;;;;;;;1.80;1.70;;;13.10;97.00;;;;;;5039412;28;20474;-79
2024/01/30 12:04:00;;;;;;;2.17;1.87;;;13.10;96.70;;;;;;5045586;28;20486;-78
2024/01/30 12:06:27;;;;;;;4.53;1.67;;;13.20;96.80;;;;;;5035413;28;20469;-79
2024/01/30 12:08:59;;;;;;;2.20;2.00;;;13.10;96.80;;;;;;5040969;28;20834;-79
2024/01/30 12:11:26;;;;;;;1.57;1.40;;;13.00;96.70;;;;;;5038213;28;20459;-78
2024/01/30 12:13:54;;;;;;;2.10;1.90;;;13.00;96.70;;;;;;5038292;28;20492;-78
2024/01/30 12:16:21;;;;;;;1.60;1.30;;;13.00;96.90;;;;;;5036863;28;20471;-78
2024/01/30 12:18:49;;;;;;;1.37;1.27;;;13.00;96.90;;;;;;5043374;28;20847;-78
2024/01/30 12:21:18;;;;;;;2.10;1.73;;;13.00;96.60;;;;;;5045572;28;20457;-78
2024/01/30 12:23:45;;;;;;;2.50;1.43;;;13.20;96.90;;;;;;5039958;28;20491;-78
2024/01/30 12:26:13;;;;;;;1.90;1.80;;;13.30;96.40;;;;;;5036721;28;20461;-78
2024/01/30 12:28:49;;;;;;;2.47;1.97;;;13.30;96.50;;;;;;5052761;28;20466;-78
2024/01/30 12:31:16;;;;;;;1.70;1.60;;;13.40;96.30;;;;;;5050409;28;20459;-78
2024/01/30 12:33:43;;;;;;;1.67;1.57;;;13.30;96.80;;;;;;5040177;28;20502;-78
2024/01/30 12:36:12;;;;;;;1.80;1.47;;;13.40;96.60;;;;;;5050214;28;20459;-78
2024/01/30 12:38:39;;;;;;;3.33;2.37;;;13.50;96.60;;;;;;5048478;28;20487;-79
2024/01/30 12:41:09;;;;;;;2.97;1.80;;;13.60;96.50;;;;;;5036925;28;20470;-78
2024/01/30 12:43:36;;;;;;;3.17;1.83;;;13.80;96.40;;;;;;5039022;28;20550;-78
2024/01/30 12:46:04;;;;;;;1.70;1.60;;;14.00;96.30;;;;;;5043268;28;20466;-80
2024/01/30 12:48:31;;;;;;;3.43;1.83;;;14.30;96.20;;;;;;5049152;28;20471;-80
2024/01/30 12:50:58;;;;;;;3.30;1.70;;;14.50;96.10;;;;;;5051440;28;20467;-79
2024/01/30 12:53:26;;;;;;;2.10;1.90;;;14.70;95.20;;;;;;5052995;28;20487;-82